sensor_id;sensor_type;location;lat;lon;timestamp;P1;durP1;ratioP1;P2;durP2;ratioP2
17965;SDS011;9108;53.204;10.424;2024-02-14T05:02:24;16.73;;;6.55;;
17965;SDS011;9108;53.204;10.424;2024-02-14T05:04:53;14.70;;;6.30;;
17965;SDS011;9108;53.204;10.424;2024-02-14T05:07:20;17.00;;;6.93;;
17965;SDS011;9108;53.204;10.424;2024-02-14T05:09:47;13.55;;;5.90;;
17965;SDS011;9108;53.204;10.424;2024-02-14T05:12:16;18.05;;;6.30;;
17965;SDS011;9108;53.204;10.424;2024-02-14T05:14:44;16.95;;;6.20;;
17965;SDS011;9108;53.204;10.424;2024-02-14T05:17:12;16.65;;;6.70;;
17965;SDS011;9108;53.204;10.424;2024-02-14T05:19:43;16.88;;;6.47;;
17965;SDS011;9108;53.204;10.424;2024-02-14T05:22:10;16.38;;;6.82;;
17965;SDS011;9108;53.204;10.424;2024-02-14T05:24:37;19.42;;;7.75;;
17965;SDS011;9108;53.204;10.424;2024-02-14T05:27:04;19.05;;;7.35;;
17965;SDS011;9108;53.204;10.424;2024-02-14T05:29:32;20.85;;;7.90;;
17965;SDS011;9108;53.204;10.424;2024-02-14T05:31:59;19.40;;;7.97;;
17965;SDS011;9108;53.204;10.424;2024-02-14T05:34:26;18.30;;;8.02;;
17965;SDS011;9108;53.204;10.424;2024-02-14T05:36:54;20.10;;;8.18;;
17965;SDS011;9108;53.204;10.424;2024-02-14T05:39:22;21.60;;;8.23;;
17965;SDS011;9108;53.204;10.424;2024-02-14T05:41:49;20.73;;;8.80;;
17965;SDS011;9108;53.204;10.424;2024-02-14T05:44:16;21.25;;;8.70;;
17965;SDS011;9108;53.204;10.424;2024-02-14T05:46:43;21.33;;;8.55;;
17965;SDS011;9108;53.204;10.424;2024-02-14T05:49:11;21.15;;;8.82;;
17965;SDS011;9108;53.204;10.424;2024-02-14T05:51:38;23.88;;;8.98;;
17965;SDS011;9108;53.204;10.424;2024-02-14T05:54:07;22.00;;;8.70;;
17965;SDS011;9108;53.204;10.424;2024-02-14T05:56:34;22.37;;;9.20;;
17965;SDS011;9108;53.204;10.424;2024-02-14T05:59:01;21.47;;;8.93;;
17965;SDS011;9108;53.204;10.424;2024-02-14T06:01:29;21.85;;;8.93;;
17965;SDS011;9108;53.204;10.424;2024-02-14T06:03:58;22.05;;;9.27;;
17965;SDS011;9108;53.204;10.424;2024-02-14T06:06:26;22.58;;;9.15;;
17965;SDS011;9108;53.204;10.424;2024-02-14T06:08:53;24.17;;;9.77;;
17965;SDS011;9108;53.204;10.424;2024-02-14T06:11:24;24.27;;;9.75;;
17965;SDS011;9108;53.204;10.424;2024-02-14T06:13:51;23.83;;;9.80;;
17965;SDS011;9108;53.204;10.424;2024-02-14T06:16:19;22.25;;;10.15;;
17965;SDS011;9108;53.204;10.424;2024-02-14T06:18:46;21.77;;;10.25;;
17965;SDS011;9108;53.204;10.424;2024-02-14T06:21:13;28.48;;;12.70;;
17965;SDS011;9108;53.204;10.424;2024-02-14T06:23:40;25.95;;;11.20;;
17965;SDS011;9108;53.204;10.424;2024-02-14T06:26:07;23.30;;;10.20;;
17965;SDS011;9108;53.204;10.424;2024-02-14T06:28:36;20.87;;;9.47;;
17965;SDS011;9108;53.204;10.424;2024-02-14T06:31:03;25.95;;;10.32;;
17965;SDS011;9108;53.204;10.424;2024-02-14T06:33:30;21.98;;;10.18;;
17965;SDS011;9108;53.204;10.424;2024-02-14T06:35:57;23.13;;;10.25;;
17965;SDS011;9108;53.204;10.424;2024-02-14T06:38:24;21.30;;;10.13;;
17965;SDS011;9108;53.204;10.424;2024-02-14T06:40:52;25.70;;;10.32;;
17965;SDS011;9108;53.204;10.424;2024-02-14T06:43:19;22.50;;;10.20;;
17965;SDS011;9108;53.204;10.424;2024-02-14T06:45:47;23.02;;;10.70;;
17965;SDS011;9108;53.204;10.424;2024-02-14T06:48:14;23.42;;;10.07;;
17965;SDS011;9108;53.204;10.424;2024-02-14T06:50:46;26.48;;;11.38;;
17965;SDS011;9108;53.204;10.424;2024-02-14T06:53:13;28.38;;;11.05;;
17965;SDS011;9108;53.204;10.424;2024-02-14T06:55:40;23.98;;;10.57;;
17965;SDS011;9108;53.204;10.424;2024-02-14T06:58:07;24.63;;;11.00;;
17965;SDS011;9108;53.204;10.424;2024-02-14T07:00:34;27.58;;;11.10;;
17965;SDS011;9108;53.204;10.424;2024-02-14T07:03:03;24.52;;;10.10;;
17965;SDS011;9108;53.204;10.424;2024-02-14T07:05:30;26.20;;;10.95;;
17965;SDS011;9108;53.204;10.424;2024-02-14T07:07:57;24.90;;;10.57;;
17965;SDS011;9108;53.204;10.424;2024-02-14T07:10:25;24.27;;;10.43;;
17965;SDS011;9108;53.204;10.424;2024-02-14T07:12:52;26.73;;;11.05;;
17965;SDS011;9108;53.204;10.424;2024-02-14T07:15:19;26.02;;;10.88;;
17965;SDS011;9108;53.204;10.424;2024-02-14T07:17:46;26.73;;;11.32;;
17965;SDS011;9108;53.204;10.424;2024-02-14T07:20:15;25.85;;;11.18;;
17965;SDS011;9108;53.204;10.424;2024-02-14T07:22:43;28.38;;;10.93;;
17965;SDS011;9108;53.204;10.424;2024-02-14T07:25:12;26.02;;;10.90;;
17965;SDS011;9108;53.204;10.424;2024-02-14T07:27:39;28.25;;;12.02;;
17965;SDS011;9108;53.204;10.424;2024-02-14T07:30:07;28.77;;;12.15;;
17965;SDS011;9108;53.204;10.424;2024-02-14T07:32:54;27.42;;;12.00;;
17965;SDS011;9108;53.204;10.424;2024-02-14T07:35:23;26.90;;;10.90;;
17965;SDS011;9108;53.204;10.424;2024-02-14T07:37:50;26.70;;;11.07;;
17965;SDS011;9108;53.204;10.424;2024-02-14T07:40:18;26.90;;;11.18;;
17965;SDS011;9108;53.204;10.424;2024-02-14T07:42:45;27.15;;;11.27;;
17965;SDS011;9108;53.204;10.424;2024-02-14T07:45:12;26.83;;;11.55;;
17965;SDS011;9108;53.204;10.424;2024-02-14T07:47:39;28.17;;;12.07;;
17965;SDS011;9108;53.204;10.424;2024-02-14T07:50:07;25.45;;;11.10;;
17965;SDS011;9108;53.204;10.424;2024-02-14T07:52:35;24.77;;;10.55;;
17965;SDS011;9108;53.204;10.424;2024-02-14T07:55:03;24.80;;;11.43;;
17965;SDS011;9108;53.204;10.424;2024-02-14T07:57:30;30.45;;;11.07;;
17965;SDS011;9108;53.204;10.424;2024-02-14T07:59:57;23.90;;;11.00;;
17965;SDS011;9108;53.204;10.424;2024-02-14T08:02:24;24.30;;;10.60;;
17965;SDS011;9108;53.204;10.424;2024-02-14T08:04:52;22.50;;;10.07;;
17965;SDS011;9108;53.204;10.424;2024-02-14T08:07:19;22.63;;;10.30;;
17965;SDS011;9108;53.204;10.424;2024-02-14T08:09:48;23.38;;;10.00;;
17965;SDS011;9108;53.204;10.424;2024-02-14T08:12:15;21.10;;;9.57;;
17965;SDS011;9108;53.204;10.424;2024-02-14T08:14:42;21.05;;;9.60;;
17965;SDS011;9108;53.204;10.424;2024-02-14T08:17:09;19.42;;;9.60;;
17965;SDS011;9108;53.204;10.424;2024-02-14T08:19:36;19.33;;;9.37;;
17965;SDS011;9108;53.204;10.424;2024-02-14T08:22:04;20.65;;;8.88;;
17965;SDS011;9108;53.204;10.424;2024-02-14T08:24:32;20.05;;;8.63;;
17965;SDS011;9108;53.204;10.424;2024-02-14T08:27:00;20.83;;;9.10;;
17965;SDS011;9108;53.204;10.424;2024-02-14T08:29:31;17.13;;;8.45;;
17965;SDS011;9108;53.204;10.424;2024-02-14T08:31:58;17.45;;;8.45;;
17965;SDS011;9108;53.204;10.424;2024-02-14T08:34:25;16.00;;;7.63;;
17965;SDS011;9108;53.204;10.424;2024-02-14T08:36:53;16.75;;;7.75;;
17965;SDS011;9108;53.204;10.424;2024-02-14T08:39:20;16.40;;;7.72;;
17965;SDS011;9108;53.204;10.424;2024-02-14T08:41:47;17.40;;;7.90;;
17965;SDS011;9108;53.204;10.424;2024-02-14T08:44:16;16.95;;;7.78;;
17965;SDS011;9108;53.204;10.424;2024-02-14T08:46:43;15.70;;;7.53;;
17965;SDS011;9108;53.204;10.424;2024-02-14T08:49:13;14.98;;;7.22;;
17965;SDS011;9108;53.204;10.424;2024-02-14T08:51:40;15.68;;;7.03;;
17965;SDS011;9108;53.204;10.424;2024-02-14T08:54:09;13.10;;;6.72;;
17965;SDS011;9108;53.204;10.424;2024-02-14T08:56:37;13.38;;;6.55;;
17965;SDS011;9108;53.204;10.424;2024-02-14T08:59:04;12.70;;;6.50;;
17965;SDS011;9108;53.204;10.424;2024-02-14T09:01:33;11.43;;;6.13;;
17965;SDS011;9108;53.204;10.424;2024-02-14T09:04:01;13.82;;;6.30;;
17965;SDS011;9108;53.204;10.424;2024-02-14T09:06:28;13.48;;;6.40;;
17965;SDS011;9108;53.204;10.424;2024-02-14T09:08:57;13.32;;;6.25;;
17965;SDS011;9108;53.204;10.424;2024-02-14T09:11:24;12.77;;;6.50;;
17965;SDS011;9108;53.204;10.424;2024-02-14T09:13:52;10.60;;;5.70;;
17965;SDS011;9108;53.204;10.424;2024-02-14T09:16:21;9.45;;;5.55;;
17965;SDS011;9108;53.204;10.424;2024-02-14T09:18:49;9.77;;;5.00;;
17965;SDS011;9108;53.204;10.424;2024-02-14T09:21:16;11.48;;;5.30;;
17965;SDS011;9108;53.204;10.424;2024-02-14T09:23:46;9.02;;;4.72;;
17965;SDS011;9108;53.204;10.424;2024-02-14T09:26:13;9.07;;;4.93;;
17965;SDS011;9108;53.204;10.424;2024-02-14T09:28:41;9.13;;;4.45;;
17965;SDS011;9108;53.204;10.424;2024-02-14T09:31:08;7.65;;;4.18;;
17965;SDS011;9108;53.204;10.424;2024-02-14T09:33:37;9.97;;;3.90;;
17965;SDS011;9108;53.204;10.424;2024-02-14T09:36:06;7.10;;;3.80;;
17965;SDS011;9108;53.204;10.424;2024-02-14T09:38:33;5.88;;;3.65;;
17965;SDS011;9108;53.204;10.424;2024-02-14T09:41:02;6.03;;;3.90;;
17965;SDS011;9108;53.204;10.424;2024-02-14T09:43:34;5.72;;;3.65;;
17965;SDS011;9108;53.204;10.424;2024-02-14T09:46:02;6.22;;;3.70;;
17965;SDS011;9108;53.204;10.424;2024-02-14T09:48:29;5.78;;;3.83;;
17965;SDS011;9108;53.204;10.424;2024-02-14T09:50:57;5.53;;;3.50;;
17965;SDS011;9108;53.204;10.424;2024-02-14T09:53:25;5.50;;;3.22;;
17965;SDS011;9108;53.204;10.424;2024-02-14T09:55:53;5.95;;;3.50;;
17965;SDS011;9108;53.204;10.424;2024-02-14T09:58:21;5.53;;;3.63;;
17965;SDS011;9108;53.204;10.424;2024-02-14T10:00:48;4.88;;;3.30;;
17965;SDS011;9108;53.204;10.424;2024-02-14T10:09:25;5.72;;;3.30;;
17965;SDS011;9108;53.204;10.424;2024-02-14T10:11:53;4.82;;;3.30;;
17965;SDS011;9108;53.204;10.424;2024-02-14T10:14:22;5.50;;;3.30;;
17965;SDS011;9108;53.204;10.424;2024-02-14T10:16:50;4.25;;;2.90;;
17965;SDS011;9108;53.204;10.424;2024-02-14T10:19:18;4.72;;;3.05;;
17965;SDS011;9108;53.204;10.424;2024-02-14T10:21:55;5.50;;;3.00;;
17965;SDS011;9108;53.204;10.424;2024-02-14T10:24:25;4.93;;;3.03;;
17965;SDS011;9108;53.204;10.424;2024-02-14T10:26:52;4.32;;;3.00;;
17965;SDS011;9108;53.204;10.424;2024-02-14T10:29:22;5.20;;;3.10;;
17965;SDS011;9108;53.204;10.424;2024-02-14T10:31:50;5.40;;;2.93;;
17965;SDS011;9108;53.204;10.424;2024-02-14T10:34:18;4.47;;;2.80;;
17965;SDS011;9108;53.204;10.424;2024-02-14T10:36:46;5.47;;;3.03;;
17965;SDS011;9108;53.204;10.424;2024-02-14T10:39:15;4.97;;;3.10;;
17965;SDS011;9108;53.204;10.424;2024-02-14T10:41:45;5.32;;;3.00;;
17965;SDS011;9108;53.204;10.424;2024-02-14T11:08:57;5.93;;;3.80;;
17965;SDS011;9108;53.204;10.424;2024-02-14T11:11:27;6.13;;;3.63;;
17965;SDS011;9108;53.204;10.424;2024-02-14T11:13:55;5.05;;;3.60;;
17965;SDS011;9108;53.204;10.424;2024-02-14T11:16:23;5.43;;;3.60;;
17965;SDS011;9108;53.204;10.424;2024-02-14T11:18:53;6.07;;;4.00;;
17965;SDS011;9108;53.204;10.424;2024-02-14T11:21:27;6.57;;;4.13;;
17965;SDS011;9108;53.204;10.424;2024-02-14T11:23:55;6.63;;;3.90;;
17965;SDS011;9108;53.204;10.424;2024-02-14T11:26:25;6.30;;;3.70;;
17965;SDS011;9108;53.204;10.424;2024-02-14T11:28:59;4.95;;;3.40;;
17965;SDS011;9108;53.204;10.424;2024-02-14T11:31:31;6.57;;;3.65;;
17965;SDS011;9108;53.204;10.424;2024-02-14T11:34:02;5.00;;;3.50;;
17965;SDS011;9108;53.204;10.424;2024-02-14T11:36:29;5.28;;;3.60;;
17965;SDS011;9108;53.204;10.424;2024-02-14T11:38:57;6.03;;;3.55;;
17965;SDS011;9108;53.204;10.424;2024-02-14T11:41:28;5.03;;;3.30;;
17965;SDS011;9108;53.204;10.424;2024-02-14T11:43:55;4.55;;;3.30;;
17965;SDS011;9108;53.204;10.424;2024-02-14T11:46:23;4.13;;;3.00;;
17965;SDS011;9108;53.204;10.424;2024-02-14T11:48:54;5.35;;;3.40;;
17965;SDS011;9108;53.204;10.424;2024-02-14T11:51:22;6.13;;;3.65;;
17965;SDS011;9108;53.204;10.424;2024-02-14T11:53:49;6.68;;;3.85;;
17965;SDS011;9108;53.204;10.424;2024-02-14T11:56:16;6.85;;;4.00;;
17965;SDS011;9108;53.204;10.424;2024-02-14T11:58:45;6.38;;;4.20;;
17965;SDS011;9108;53.204;10.424;2024-02-14T12:01:13;6.35;;;4.18;;
17965;SDS011;9108;53.204;10.424;2024-02-14T12:03:40;9.50;;;4.80;;
17965;SDS011;9108;53.204;10.424;2024-02-14T12:06:07;9.32;;;4.80;;
17965;SDS011;9108;53.204;10.424;2024-02-14T12:08:35;10.80;;;5.90;;
17965;SDS011;9108;53.204;10.424;2024-02-14T12:11:03;10.35;;;6.00;;
17965;SDS011;9108;53.204;10.424;2024-02-14T12:13:30;11.65;;;6.60;;
17965;SDS011;9108;53.204;10.424;2024-02-14T12:16:01;13.65;;;7.60;;
17965;SDS011;9108;53.204;10.424;2024-02-14T12:18:28;14.27;;;7.97;;
17965;SDS011;9108;53.204;10.424;2024-02-14T12:21:02;15.65;;;8.30;;
17965;SDS011;9108;53.204;10.424;2024-02-14T12:23:33;15.23;;;8.35;;
17965;SDS011;9108;53.204;10.424;2024-02-14T12:26:01;16.45;;;8.88;;
17965;SDS011;9108;53.204;10.424;2024-02-14T12:28:28;18.70;;;9.80;;
17965;SDS011;9108;53.204;10.424;2024-02-14T12:30:56;17.65;;;9.18;;
17965;SDS011;9108;53.204;10.424;2024-02-14T12:33:25;16.55;;;8.93;;
17965;SDS011;9108;53.204;10.424;2024-02-14T12:35:53;16.73;;;9.10;;
17965;SDS011;9108;53.204;10.424;2024-02-14T12:38:21;17.98;;;9.35;;
17965;SDS011;9108;53.204;10.424;2024-02-14T12:40:49;18.05;;;10.40;;
17965;SDS011;9108;53.204;10.424;2024-02-14T12:43:16;18.40;;;10.20;;
17965;SDS011;9108;53.204;10.424;2024-02-14T12:45:43;19.38;;;10.40;;
17965;SDS011;9108;53.204;10.424;2024-02-14T12:48:11;20.23;;;10.32;;
17965;SDS011;9108;53.204;10.424;2024-02-14T12:50:40;21.73;;;10.95;;
17965;SDS011;9108;53.204;10.424;2024-02-14T12:53:12;18.83;;;10.40;;
17965;SDS011;9108;53.204;10.424;2024-02-14T12:55:39;19.92;;;10.60;;
17965;SDS011;9108;53.204;10.424;2024-02-14T12:58:07;22.27;;;10.68;;
17965;SDS011;9108;53.204;10.424;2024-02-14T13:00:34;21.20;;;10.98;;
17965;SDS011;9108;53.204;10.424;2024-02-14T13:03:03;21.70;;;11.38;;
17965;SDS011;9108;53.204;10.424;2024-02-14T13:05:30;20.17;;;10.63;;
17965;SDS011;9108;53.204;10.424;2024-02-14T13:08:00;19.95;;;10.75;;
17965;SDS011;9108;53.204;10.424;2024-02-14T13:10:27;17.43;;;9.63;;
17965;SDS011;9108;53.204;10.424;2024-02-14T13:12:56;19.23;;;10.00;;
17965;SDS011;9108;53.204;10.424;2024-02-14T13:15:23;16.80;;;9.43;;
17965;SDS011;9108;53.204;10.424;2024-02-14T13:17:51;15.10;;;8.52;;
17965;SDS011;9108;53.204;10.424;2024-02-14T13:20:18;16.17;;;8.63;;
17965;SDS011;9108;53.204;10.424;2024-02-14T13:22:45;15.25;;;8.48;;
17965;SDS011;9108;53.204;10.424;2024-02-14T13:25:14;13.30;;;8.38;;
17965;SDS011;9108;53.204;10.424;2024-02-14T13:27:41;16.30;;;8.43;;
17965;SDS011;9108;53.204;10.424;2024-02-14T13:30:09;14.63;;;8.70;;
17965;SDS011;9108;53.204;10.424;2024-02-14T13:32:36;14.98;;;8.45;;
17965;SDS011;9108;53.204;10.424;2024-02-14T13:35:04;14.40;;;8.20;;
17965;SDS011;9108;53.204;10.424;2024-02-14T13:37:31;12.88;;;7.80;;
17965;SDS011;9108;53.204;10.424;2024-02-14T13:39:59;13.32;;;7.80;;
17965;SDS011;9108;53.204;10.424;2024-02-14T13:42:27;13.18;;;7.88;;
17965;SDS011;9108;53.204;10.424;2024-02-14T13:44:54;12.40;;;7.57;;
17965;SDS011;9108;53.204;10.424;2024-02-14T13:47:22;13.50;;;8.10;;
17965;SDS011;9108;53.204;10.424;2024-02-14T13:49:49;14.98;;;8.27;;
17965;SDS011;9108;53.204;10.424;2024-02-14T13:52:17;14.82;;;8.30;;
17965;SDS011;9108;53.204;10.424;2024-02-14T13:54:45;14.10;;;8.27;;
17965;SDS011;9108;53.204;10.424;2024-02-14T13:57:12;14.83;;;8.50;;
17965;SDS011;9108;53.204;10.424;2024-02-14T13:59:41;14.18;;;8.05;;
17965;SDS011;9108;53.204;10.424;2024-02-14T14:02:08;13.45;;;8.15;;
17965;SDS011;9108;53.204;10.424;2024-02-14T14:04:36;13.15;;;7.97;;
17965;SDS011;9108;53.204;10.424;2024-02-14T14:07:03;13.52;;;8.27;;
17965;SDS011;9108;53.204;10.424;2024-02-14T14:12:24;15.20;;;8.70;;
17965;SDS011;9108;53.204;10.424;2024-02-14T14:15:07;16.07;;;9.47;;
17965;SDS011;9108;53.204;10.424;2024-02-14T14:17:34;14.98;;;9.27;;
17965;SDS011;9108;53.204;10.424;2024-02-14T14:20:03;14.73;;;9.45;;
17965;SDS011;9108;53.204;10.424;2024-02-14T14:22:33;16.50;;;9.38;;
17965;SDS011;9108;53.204;10.424;2024-02-14T14:25:00;14.70;;;9.13;;
17965;SDS011;9108;53.204;10.424;2024-02-14T14:27:29;16.38;;;10.23;;
17965;SDS011;9108;53.204;10.424;2024-02-14T14:29:57;14.38;;;9.38;;
17965;SDS011;9108;53.204;10.424;2024-02-14T14:32:25;16.58;;;9.80;;
17965;SDS011;9108;53.204;10.424;2024-02-14T14:34:52;14.52;;;9.63;;
17965;SDS011;9108;53.204;10.424;2024-02-14T14:37:20;15.88;;;9.95;;
17965;SDS011;9108;53.204;10.424;2024-02-14T14:39:47;15.63;;;9.77;;
17965;SDS011;9108;53.204;10.424;2024-02-14T14:42:14;15.45;;;9.70;;
17965;SDS011;9108;53.204;10.424;2024-02-14T14:44:42;13.68;;;9.43;;
17965;SDS011;9108;53.204;10.424;2024-02-14T14:47:10;14.63;;;9.88;;
17965;SDS011;9108;53.204;10.424;2024-02-14T14:49:39;15.55;;;10.23;;
17965;SDS011;9108;53.204;10.424;2024-02-14T14:52:07;15.85;;;9.85;;
17965;SDS011;9108;53.204;10.424;2024-02-14T14:54:34;14.52;;;9.40;;
17965;SDS011;9108;53.204;10.424;2024-02-14T14:57:02;15.65;;;10.13;;
17965;SDS011;9108;53.204;10.424;2024-02-14T14:59:34;15.38;;;9.68;;
17965;SDS011;9108;53.204;10.424;2024-02-14T15:02:01;17.05;;;10.05;;
17965;SDS011;9108;53.204;10.424;2024-02-14T15:04:30;17.80;;;10.38;;
17965;SDS011;9108;53.204;10.424;2024-02-14T15:07:01;16.88;;;10.50;;
17965;SDS011;9108;53.204;10.424;2024-02-14T15:09:28;16.98;;;10.50;;
17965;SDS011;9108;53.204;10.424;2024-02-14T15:11:55;16.90;;;10.60;;
17965;SDS011;9108;53.204;10.424;2024-02-14T15:14:22;18.23;;;11.02;;
17965;SDS011;9108;53.204;10.424;2024-02-14T15:16:50;19.63;;;11.33;;
17965;SDS011;9108;53.204;10.424;2024-02-14T15:19:17;19.83;;;11.63;;
17965;SDS011;9108;53.204;10.424;2024-02-14T15:21:44;19.48;;;11.35;;
17965;SDS011;9108;53.204;10.424;2024-02-14T15:24:13;19.40;;;11.50;;
17965;SDS011;9108;53.204;10.424;2024-02-14T15:26:40;21.60;;;12.25;;
17965;SDS011;9108;53.204;10.424;2024-02-14T15:29:15;20.70;;;12.20;;
17965;SDS011;9108;53.204;10.424;2024-02-14T15:32:02;20.40;;;11.88;;
17965;SDS011;9108;53.204;10.424;2024-02-14T15:34:47;20.83;;;11.93;;
17965;SDS011;9108;53.204;10.424;2024-02-14T15:37:14;20.95;;;11.45;;
17965;SDS011;9108;53.204;10.424;2024-02-14T15:39:44;20.30;;;11.48;;
17965;SDS011;9108;53.204;10.424;2024-02-14T15:42:11;20.55;;;12.18;;
17965;SDS011;9108;53.204;10.424;2024-02-14T15:44:38;21.67;;;12.25;;
17965;SDS011;9108;53.204;10.424;2024-02-14T15:47:05;21.52;;;12.18;;
17965;SDS011;9108;53.204;10.424;2024-02-14T15:49:35;21.38;;;11.43;;
17965;SDS011;9108;53.204;10.424;2024-02-14T15:52:03;22.17;;;12.32;;
17965;SDS011;9108;53.204;10.424;2024-02-14T15:54:30;21.30;;;12.02;;
17965;SDS011;9108;53.204;10.424;2024-02-14T15:56:59;21.90;;;12.25;;
17965;SDS011;9108;53.204;10.424;2024-02-14T15:59:27;22.03;;;12.40;;
17965;SDS011;9108;53.204;10.424;2024-02-14T16:01:55;23.40;;;12.40;;
17965;SDS011;9108;53.204;10.424;2024-02-14T16:04:22;24.70;;;12.90;;
17965;SDS011;9108;53.204;10.424;2024-02-14T16:06:50;25.00;;;12.88;;
17965;SDS011;9108;53.204;10.424;2024-02-14T16:09:18;25.15;;;13.52;;
17965;SDS011;9108;53.204;10.424;2024-02-14T16:11:47;26.75;;;13.88;;
17965;SDS011;9108;53.204;10.424;2024-02-14T16:14:22;28.23;;;13.63;;
17965;SDS011;9108;53.204;10.424;2024-02-14T16:16:49;27.00;;;14.37;;
17965;SDS011;9108;53.204;10.424;2024-02-14T16:19:16;27.05;;;14.00;;
17965;SDS011;9108;53.204;10.424;2024-02-14T16:21:43;31.10;;;15.43;;
17965;SDS011;9108;53.204;10.424;2024-02-14T16:24:11;28.98;;;15.25;;
17965;SDS011;9108;53.204;10.424;2024-02-14T16:26:38;31.15;;;16.10;;
17965;SDS011;9108;53.204;10.424;2024-02-14T16:29:05;29.20;;;15.60;;
17965;SDS011;9108;53.204;10.424;2024-02-14T16:31:34;32.15;;;16.23;;
17965;SDS011;9108;53.204;10.424;2024-02-14T16:34:01;31.23;;;16.30;;
17965;SDS011;9108;53.204;10.424;2024-02-14T16:36:28;32.83;;;16.30;;
17965;SDS011;9108;53.204;10.424;2024-02-14T16:38:55;32.65;;;16.92;;
17965;SDS011;9108;53.204;10.424;2024-02-14T16:41:23;33.08;;;16.85;;
17965;SDS011;9108;53.204;10.424;2024-02-14T16:43:50;32.65;;;16.90;;
17965;SDS011;9108;53.204;10.424;2024-02-14T16:46:17;34.45;;;16.70;;
17965;SDS011;9108;53.204;10.424;2024-02-14T16:48:45;35.13;;;17.08;;
17965;SDS011;9108;53.204;10.424;2024-02-14T16:51:13;32.35;;;17.00;;
17965;SDS011;9108;53.204;10.424;2024-02-14T16:53:46;34.42;;;18.13;;
17965;SDS011;9108;53.204;10.424;2024-02-14T16:56:13;34.75;;;17.52;;
17965;SDS011;9108;53.204;10.424;2024-02-14T16:58:42;35.45;;;17.75;;
17965;SDS011;9108;53.204;10.424;2024-02-14T17:01:09;35.70;;;18.40;;
17965;SDS011;9108;53.204;10.424;2024-02-14T17:03:36;38.77;;;17.97;;
17965;SDS011;9108;53.204;10.424;2024-02-14T17:06:06;37.13;;;18.67;;
17965;SDS011;9108;53.204;10.424;2024-02-14T17:08:33;36.95;;;18.23;;
17965;SDS011;9108;53.204;10.424;2024-02-14T17:11:02;37.97;;;18.92;;
17965;SDS011;9108;53.204;10.424;2024-02-14T17:13:29;39.95;;;19.17;;
17965;SDS011;9108;53.204;10.424;2024-02-14T17:15:56;41.22;;;19.55;;
17965;SDS011;9108;53.204;10.424;2024-02-14T17:18:23;38.00;;;18.90;;
17965;SDS011;9108;53.204;10.424;2024-02-14T17:20:51;40.20;;;19.38;;
17965;SDS011;9108;53.204;10.424;2024-02-14T17:23:20;41.20;;;19.93;;
17965;SDS011;9108;53.204;10.424;2024-02-14T17:25:47;39.28;;;19.88;;
17965;SDS011;9108;53.204;10.424;2024-02-14T17:28:15;41.38;;;19.58;;
17965;SDS011;9108;53.204;10.424;2024-02-14T17:30:43;42.67;;;19.98;;
17965;SDS011;9108;53.204;10.424;2024-02-14T17:33:10;39.22;;;19.35;;
17965;SDS011;9108;53.204;10.424;2024-02-14T17:35:37;41.50;;;20.25;;
17965;SDS011;9108;53.204;10.424;2024-02-14T17:38:04;41.33;;;19.90;;
17965;SDS011;9108;53.204;10.424;2024-02-14T17:40:33;43.30;;;20.40;;
17965;SDS011;9108;53.204;10.424;2024-02-14T17:43:00;42.80;;;19.85;;
17965;SDS011;9108;53.204;10.424;2024-02-14T17:45:27;44.15;;;20.05;;
17965;SDS011;9108;53.204;10.424;2024-02-14T17:47:54;43.07;;;20.10;;
17965;SDS011;9108;53.204;10.424;2024-02-14T17:50:21;42.53;;;19.85;;
17965;SDS011;9108;53.204;10.424;2024-02-14T17:52:48;40.20;;;18.98;;
17965;SDS011;9108;53.204;10.424;2024-02-14T17:55:15;40.90;;;18.88;;
17965;SDS011;9108;53.204;10.424;2024-02-14T17:57:44;40.20;;;19.48;;
17965;SDS011;9108;53.204;10.424;2024-02-14T18:00:12;39.60;;;18.38;;
17965;SDS011;9108;53.204;10.424;2024-02-14T18:02:40;37.35;;;18.00;;
17965;SDS011;9108;53.204;10.424;2024-02-14T18:05:08;39.00;;;18.60;;
17965;SDS011;9108;53.204;10.424;2024-02-14T18:07:35;41.17;;;19.50;;
17965;SDS011;9108;53.204;10.424;2024-02-14T18:10:02;39.72;;;18.98;;
17965;SDS011;9108;53.204;10.424;2024-02-14T18:12:30;36.42;;;18.30;;
17965;SDS011;9108;53.204;10.424;2024-02-14T18:14:58;36.13;;;17.37;;
17965;SDS011;9108;53.204;10.424;2024-02-14T18:17:25;35.92;;;17.42;;
17965;SDS011;9108;53.204;10.424;2024-02-14T18:19:53;33.92;;;16.73;;
17965;SDS011;9108;53.204;10.424;2024-02-14T18:22:20;32.53;;;15.82;;
17965;SDS011;9108;53.204;10.424;2024-02-14T18:24:47;35.30;;;17.27;;
17965;SDS011;9108;53.204;10.424;2024-02-14T18:27:14;36.90;;;17.27;;
17965;SDS011;9108;53.204;10.424;2024-02-14T18:29:41;34.92;;;17.15;;
17965;SDS011;9108;53.204;10.424;2024-02-14T18:32:10;35.70;;;17.13;;
17965;SDS011;9108;53.204;10.424;2024-02-14T18:34:37;34.58;;;17.15;;
17965;SDS011;9108;53.204;10.424;2024-02-14T18:37:06;35.00;;;16.80;;
17965;SDS011;9108;53.204;10.424;2024-02-14T18:39:35;36.85;;;17.63;;
17965;SDS011;9108;53.204;10.424;2024-02-14T18:42:02;37.80;;;18.40;;
17965;SDS011;9108;53.204;10.424;2024-02-14T18:44:30;36.25;;;17.30;;
17965;SDS011;9108;53.204;10.424;2024-02-14T18:46:57;36.20;;;17.00;;
17965;SDS011;9108;53.204;10.424;2024-02-14T18:49:26;39.03;;;17.48;;
17965;SDS011;9108;53.204;10.424;2024-02-14T18:51:53;36.53;;;17.65;;
17965;SDS011;9108;53.204;10.424;2024-02-14T18:54:20;34.92;;;17.10;;
17965;SDS011;9108;53.204;10.424;2024-02-14T18:56:49;34.60;;;16.98;;
17965;SDS011;9108;53.204;10.424;2024-02-14T18:59:17;37.83;;;17.90;;
17965;SDS011;9108;53.204;10.424;2024-02-14T19:01:43;35.70;;;16.77;;
17965;SDS011;9108;53.204;10.424;2024-02-14T19:04:10;39.90;;;18.10;;
17965;SDS011;9108;53.204;10.424;2024-02-14T19:06:39;39.75;;;18.27;;
17965;SDS011;9108;53.204;10.424;2024-02-14T19:09:06;38.35;;;17.92;;
17965;SDS011;9108;53.204;10.424;2024-02-14T19:11:36;38.90;;;17.40;;
17965;SDS011;9108;53.204;10.424;2024-02-14T19:14:04;38.85;;;18.05;;
17965;SDS011;9108;53.204;10.424;2024-02-14T19:16:31;36.75;;;17.10;;
17965;SDS011;9108;53.204;10.424;2024-02-14T19:18:59;35.55;;;16.42;;
17965;SDS011;9108;53.204;10.424;2024-02-14T19:21:26;37.60;;;16.45;;
17965;SDS011;9108;53.204;10.424;2024-02-14T19:23:55;34.20;;;16.10;;
17965;SDS011;9108;53.204;10.424;2024-02-14T19:26:22;34.15;;;15.50;;
17965;SDS011;9108;53.204;10.424;2024-02-14T19:28:50;32.67;;;15.20;;
17965;SDS011;9108;53.204;10.424;2024-02-14T19:31:17;32.97;;;15.07;;
17965;SDS011;9108;53.204;10.424;2024-02-14T19:33:45;33.05;;;14.90;;
17965;SDS011;9108;53.204;10.424;2024-02-14T19:36:12;31.63;;;14.70;;
17965;SDS011;9108;53.204;10.424;2024-02-14T19:38:40;32.00;;;14.75;;
17965;SDS011;9108;53.204;10.424;2024-02-14T19:41:08;31.38;;;14.55;;
17965;SDS011;9108;53.204;10.424;2024-02-14T19:43:36;30.67;;;14.23;;
17965;SDS011;9108;53.204;10.424;2024-02-14T19:46:04;29.98;;;13.85;;
17965;SDS011;9108;53.204;10.424;2024-02-14T19:48:31;31.60;;;14.05;;
17965;SDS011;9108;53.204;10.424;2024-02-14T19:50:59;30.65;;;13.95;;
17965;SDS011;9108;53.204;10.424;2024-02-14T19:53:27;28.67;;;13.70;;
17965;SDS011;9108;53.204;10.424;2024-02-14T19:55:55;31.33;;;14.05;;
17965;SDS011;9108;53.204;10.424;2024-02-14T19:58:25;31.83;;;14.30;;
17965;SDS011;9108;53.204;10.424;2024-02-14T20:00:52;29.75;;;13.50;;
17965;SDS011;9108;53.204;10.424;2024-02-14T20:03:19;30.90;;;13.18;;
17965;SDS011;9108;53.204;10.424;2024-02-14T20:05:47;28.13;;;12.75;;
17965;SDS011;9108;53.204;10.424;2024-02-14T20:08:14;27.70;;;12.65;;
17965;SDS011;9108;53.204;10.424;2024-02-14T20:10:42;26.77;;;12.25;;